Terminal Aerodrome Forecast
Issued by NWS Tulsa, OK

Home | Current Version | Previous Version | Text Only | Print | Product List | Glossary On
Versions: 1 2 3 4 5 6 7 8 9 10 11 12 13 14 15 16 17 18 19 20 21 22 23 24 25 26 27 28 29 30 31 32 33 34 35 36 37 38 39 40
000
FTUS44 KTSA 181346 AAA
TAFTUL
TAF AMD
KTUL 181346Z 1814/1912 00000KT P6SM OVC250
     FM181800 18007KT P6SM BKN050
     FM190400 VRB03KT P6SM VCTS BKN035CB
      TEMPO 1905/1909 VRB15G25KT 2SM TSRA BR BKN025CB=

USA.gov is the U.S. government's official web portal to all federal, state and local government web resources and services.